Test XHTML 1.0 Strict Page for WU-History Testing
Station Historical Data
 
Daily Summary for September 02, 2014 Units:  Both    English   Metric
« Previous Day
Next Day »
Daily Weekly Monthly Yearly Custom
  Current: High: Low: Average:
Temperature: 43.3 °F /  6.3 °C 48.6 °F /  9.2 °C 43.3 °F /  6.3 °C 46.6 °F /  8.1 °C
Dew Point: 43.1 °F /  6.2 °C 48.3 °F /  9.1 °C 43.1 °F /  6.2 °C 46.3 °F /  7.9 °C
Humidity: 99% 100% 98% 99%
Wind Speed: 0.0mph /  0km/h 0.0mph /  0km/h - 0mph /  0km/h
Wind Gust: 0.0mph /  0km/h 0.0mph /  0km/h - -
WindCalm - - North
Pressure: 30.25 in /  1024.3 hPa 30.25 in /  1024.3 hPa 30.22 in /  1023.2 hPa -
Precipitation: 0.00 in /  0 mm      
Historical Graphs
 
 
Weather-Above Climate History
Untitled
Tabular Data for September 02, 2014
Time Temperature Dew Point Pressure Wind Wind Speed Wind Gust Humidity Rainfall Rate (Hourly)
00:03 48.6 °F /  9.2 °C 48.0 °F /  8.9 °C 30.22in /  1023.2hPa Calm     98% 0.00in /  0cm
00:08 48.4 °F /  9.1 °C 47.8 °F /  8.8 °C 30.22in /  1023.2hPa Calm     98% 0.00in /  0cm
00:13 48.2 °F /  9 °C 47.7 °F /  8.7 °C 30.23in /  1023.6hPa Calm     98% 0.00in /  0cm
00:18 48.2 °F /  9 °C 47.7 °F /  8.7 °C 30.23in /  1023.6hPa Calm     98% 0.00in /  0cm
00:23 48.4 °F /  9.1 °C 47.8 °F /  8.8 °C 30.23in /  1023.6hPa Calm     98% 0.00in /  0cm
00:28 48.0 °F /  8.9 °C 47.5 °F /  8.6 °C 30.23in /  1023.6hPa Calm     98% 0.00in /  0cm
00:33 47.7 °F /  8.7 °C 47.1 °F /  8.4 °C 30.23in /  1023.6hPa Calm     98% 0.00in /  0cm
00:38 47.7 °F /  8.7 °C 47.1 °F /  8.4 °C 30.23in /  1023.6hPa Calm     98% 0.00in /  0cm
00:43 48.0 °F /  8.9 °C 47.5 °F /  8.6 °C 30.23in /  1023.6hPa Calm     98% 0.00in /  0cm
00:48 47.8 °F /  8.8 °C 47.3 °F /  8.5 °C 30.23in /  1023.6hPa Calm     98% 0.00in /  0cm
00:53 47.8 °F /  8.8 °C 47.3 °F /  8.5 °C 30.23in /  1023.6hPa Calm     98% 0.00in /  0cm
00:58 47.8 °F /  8.8 °C 47.3 °F /  8.5 °C 30.23in /  1023.6hPa Calm     98% 0.00in /  0cm
01:03 47.8 °F /  8.8 °C 47.3 °F /  8.5 °C 30.23in /  1023.6hPa Calm     98% 0.00in /  0cm
01:08 48.0 °F /  8.9 °C 47.8 °F /  8.8 °C 30.23in /  1023.6hPa Calm     99% 0.00in /  0cm
01:13 48.0 °F /  8.9 °C 47.8 °F /  8.8 °C 30.23in /  1023.6hPa Calm     99% 0.00in /  0cm
01:18 47.8 °F /  8.8 °C 47.3 °F /  8.5 °C 30.23in /  1023.6hPa Calm     98% 0.00in /  0cm
01:23 48.0 °F /  8.9 °C 47.8 °F /  8.8 °C 30.23in /  1023.6hPa Calm     99% 0.00in /  0cm
01:28 48.2 °F /  9 °C 47.9 °F /  8.8 °C 30.23in /  1023.6hPa Calm     99% 0.00in /  0cm
01:33 48.2 °F /  9 °C 47.9 °F /  8.8 °C 30.24in /  1023.9hPa Calm     99% 0.00in /  0cm
01:38 48.4 °F /  9.1 °C 48.1 °F /  8.9 °C 30.24in /  1023.9hPa Calm     99% 0.00in /  0cm
01:43 48.4 °F /  9.1 °C 48.1 °F /  8.9 °C 30.24in /  1023.9hPa Calm     99% 0.00in /  0cm
01:48 48.6 °F /  9.2 °C 48.3 °F /  9.1 °C 30.24in /  1023.9hPa Calm     99% 0.00in /  0cm
01:53 48.6 °F /  9.2 °C 48.3 °F /  9.1 °C 30.24in /  1023.9hPa Calm     99% 0.00in /  0cm
01:58 48.6 °F /  9.2 °C 48.3 °F /  9.1 °C 30.24in /  1023.9hPa Calm     99% 0.00in /  0cm
02:03 48.6 °F /  9.2 °C 48.3 °F /  9.1 °C 30.25in /  1024.3hPa Calm     99% 0.00in /  0cm
02:08 48.4 °F /  9.1 °C 48.1 °F /  8.9 °C 30.24in /  1023.9hPa Calm     99% 0.00in /  0cm
02:13 48.2 °F /  9 °C 47.9 °F /  8.8 °C 30.24in /  1023.9hPa Calm     99% 0.00in /  0cm
02:18 48.0 °F /  8.9 °C 47.8 °F /  8.8 °C 30.24in /  1023.9hPa Calm     99% 0.00in /  0cm
02:23 48.0 °F /  8.9 °C 47.8 °F /  8.8 °C 30.23in /  1023.6hPa Calm     99% 0.00in /  0cm
02:28 48.0 °F /  8.9 °C 47.8 °F /  8.8 °C 30.23in /  1023.6hPa Calm     99% 0.00in /  0cm
02:33 47.7 °F /  8.7 °C 47.4 °F /  8.6 °C 30.23in /  1023.6hPa Calm     99% 0.00in /  0cm
02:38 47.7 °F /  8.7 °C 47.4 °F /  8.6 °C 30.23in /  1023.6hPa Calm     99% 0.00in /  0cm
02:43 47.5 °F /  8.6 °C 47.2 °F /  8.4 °C 30.23in /  1023.6hPa Calm     99% 0.00in /  0cm
02:48 47.3 °F /  8.5 °C 46.8 °F /  8.2 °C 30.23in /  1023.6hPa Calm     98% 0.00in /  0cm
02:53 47.1 °F /  8.4 °C 46.9 °F /  8.3 °C 30.23in /  1023.6hPa Calm     99% 0.00in /  0cm
02:58 46.9 °F /  8.3 °C 46.7 °F /  8.2 °C 30.23in /  1023.6hPa Calm     99% 0.00in /  0cm
03:03 46.6 °F /  8.1 °C 46.3 °F /  7.9 °C 30.23in /  1023.6hPa Calm     99% 0.00in /  0cm
03:08 46.4 °F /  8 °C 46.1 °F /  7.8 °C 30.23in /  1023.6hPa Calm     99% 0.00in /  0cm
03:13 46.4 °F /  8 °C 46.1 °F /  7.8 °C 30.24in /  1023.9hPa Calm     99% 0.00in /  0cm
03:18 46.4 °F /  8 °C 46.1 °F /  7.8 °C 30.24in /  1023.9hPa Calm     99% 0.00in /  0cm
03:23 46.4 °F /  8 °C 46.1 °F /  7.8 °C 30.23in /  1023.6hPa Calm     99% 0.00in /  0cm
03:28 46.4 °F /  8 °C 46.1 °F /  7.8 °C 30.24in /  1023.9hPa Calm     99% 0.00in /  0cm
03:33 46.2 °F /  7.9 °C 46.0 °F /  7.8 °C 30.23in /  1023.6hPa Calm     99% 0.00in /  0cm
03:38 46.2 °F /  7.9 °C 46.0 °F /  7.8 °C 30.23in /  1023.6hPa Calm     99% 0.00in /  0cm
03:43 46.0 °F /  7.8 °C 45.8 °F /  7.7 °C 30.23in /  1023.6hPa Calm     99% 0.00in /  0cm
03:48 46.0 °F /  7.8 °C 45.8 °F /  7.7 °C 30.23in /  1023.6hPa Calm     99% 0.00in /  0cm
03:53 45.7 °F /  7.6 °C 45.7 °F /  7.6 °C 30.23in /  1023.6hPa Calm     100% 0.00in /  0cm
03:58 45.5 °F /  7.5 °C 45.2 °F /  7.3 °C 30.23in /  1023.6hPa Calm     99% 0.00in /  0cm
04:03 45.1 °F /  7.3 °C 44.9 °F /  7.2 °C 30.23in /  1023.6hPa Calm     99% 0.00in /  0cm
04:08 45.0 °F /  7.2 °C 44.7 °F /  7.1 °C 30.23in /  1023.6hPa Calm     99% 0.00in /  0cm
04:13 45.0 °F /  7.2 °C 44.7 °F /  7.1 °C 30.23in /  1023.6hPa Calm     99% 0.00in /  0cm
04:18 44.6 °F /  7 °C 44.6 °F /  7 °C 30.23in /  1023.6hPa Calm     100% 0.00in /  0cm
04:23 44.6 °F /  7 °C 44.3 °F /  6.8 °C 30.23in /  1023.6hPa Calm     99% 0.00in /  0cm
04:28 44.6 °F /  7 °C 44.6 °F /  7 °C 30.23in /  1023.6hPa Calm     100% 0.00in /  0cm
04:33 44.6 °F /  7 °C 44.3 °F /  6.8 °C 30.24in /  1023.9hPa Calm     99% 0.00in /  0cm
04:38 44.2 °F /  6.8 °C 44.2 °F /  6.8 °C 30.24in /  1023.9hPa Calm     100% 0.00in /  0cm
04:43 44.1 °F /  6.7 °C 43.8 °F /  6.6 °C 30.24in /  1023.9hPa Calm     99% 0.00in /  0cm
04:48 44.4 °F /  6.9 °C 44.2 °F /  6.8 °C 30.24in /  1023.9hPa Calm     99% 0.00in /  0cm
04:53 44.1 °F /  6.7 °C 43.8 °F /  6.6 °C 30.24in /  1023.9hPa Calm     99% 0.00in /  0cm
04:58 43.7 °F /  6.5 °C 43.4 °F /  6.3 °C 30.24in /  1023.9hPa Calm     99% 0.00in /  0cm
05:01 43.7 °F /  6.5 °C 43.4 °F /  6.3 °C 30.24in /  1023.9hPa Calm     99% 0.00in /  0cm
05:02 43.7 °F /  6.5 °C 43.4 °F /  6.3 °C 30.24in /  1023.9hPa Calm     99% 0.00in /  0cm
05:04 43.7 °F /  6.5 °C 43.4 °F /  6.3 °C 30.24in /  1023.9hPa Calm     99% 0.00in /  0cm
05:05 43.7 °F /  6.5 °C 43.4 °F /  6.3 °C 30.24in /  1023.9hPa Calm     99% 0.00in /  0cm
05:06 43.5 °F /  6.4 °C 43.5 °F /  6.4 °C 30.24in /  1023.9hPa Calm     100% 0.00in /  0cm
05:11 43.3 °F /  6.3 °C 43.1 °F /  6.2 °C 30.25in /  1024.3hPa Calm     99% 0.00in /  0cm
Wether-Above
Compliments of Weather Underground
Welcome to Weather-Above
Cheddleton weather station supplies various organisations with data from our weather station one of them is the weather Underground this information displayed here is coming from the weather Underground server 

If any information is used please acknowledge the source to www weather-above.com or weather Underground